createdAt,value
2023-03-16T00:02:07.668Z,8.65
2023-03-16T00:04:37.608Z,8.65
2023-03-16T00:07:07.440Z,8.02
2023-03-16T00:09:35.713Z,8.02
2023-03-16T00:12:03.521Z,8.15
2023-03-16T00:14:31.270Z,7.72
2023-03-16T00:16:58.905Z,8.40
2023-03-16T00:19:26.130Z,7.72
2023-03-16T00:21:53.778Z,7.65
2023-03-16T00:24:21.069Z,7.82
2023-03-16T00:26:48.641Z,8.38
2023-03-16T00:29:15.931Z,7.80
2023-03-16T00:31:44.139Z,8.30
2023-03-16T00:34:12.625Z,8.02
2023-03-16T00:36:40.130Z,7.88
2023-03-16T00:39:11.054Z,8.38
2023-03-16T00:41:38.664Z,8.52
2023-03-16T00:44:06.502Z,8.25
2023-03-16T00:46:36.048Z,8.63
2023-03-16T00:49:04.085Z,7.57
2023-03-16T00:51:33.857Z,8.30
2023-03-16T00:54:01.144Z,7.70
2023-03-16T00:56:29.042Z,7.93
2023-03-16T00:58:57.865Z,7.72
2023-03-16T01:01:26.346Z,8.30
2023-03-16T01:03:54.636Z,7.95
2023-03-16T01:06:22.164Z,7.95
2023-03-16T01:08:49.395Z,8.00
2023-03-16T01:11:19.882Z,7.80
2023-03-16T01:13:48.051Z,8.45
2023-03-16T01:16:18.844Z,8.05
2023-03-16T01:18:47.718Z,8.38
2023-03-16T01:21:16.093Z,7.82
2023-03-16T01:23:44.200Z,8.48
2023-03-16T01:26:11.887Z,7.82
2023-03-16T01:28:39.225Z,8.05
2023-03-16T01:31:10.378Z,7.60
2023-03-16T01:33:38.446Z,8.43
2023-03-16T01:36:09.451Z,8.10
2023-03-16T01:38:37.091Z,8.13
2023-03-16T01:41:04.966Z,7.22
2023-03-16T01:43:34.411Z,7.60
2023-03-16T01:46:05.129Z,7.47
2023-03-16T01:48:47.728Z,7.75
2023-03-16T01:51:21.133Z,7.30
2023-03-16T01:53:56.249Z,7.32
2023-03-16T01:56:34.497Z,7.78
2023-03-16T01:59:09.290Z,8.20
2023-03-16T02:01:37.041Z,7.93
2023-03-16T02:04:13.853Z,7.35
2023-03-16T02:06:44.579Z,8.00
2023-03-16T02:09:12.316Z,7.60
2023-03-16T02:11:40.084Z,7.50
2023-03-16T02:14:11.298Z,7.82
2023-03-16T02:16:40.691Z,8.15
2023-03-16T02:19:16.805Z,7.75
2023-03-16T02:22:02.137Z,7.63
2023-03-16T02:24:30.415Z,7.20
2023-03-16T02:27:04.529Z,7.82
2023-03-16T02:29:56.525Z,7.53
2023-03-16T02:32:26.858Z,6.97
2023-03-16T02:34:55.444Z,7.20
2023-03-16T02:37:23.429Z,7.22
2023-03-16T02:39:50.747Z,7.50
2023-03-16T02:42:21.872Z,7.05
2023-03-16T02:44:55.188Z,7.05
2023-03-16T02:47:28.673Z,7.25
2023-03-16T02:49:55.948Z,7.65
2023-03-16T02:52:23.908Z,6.90
2023-03-16T02:54:51.151Z,7.78
2023-03-16T02:57:18.707Z,7.07
2023-03-16T02:59:46.026Z,7.78
2023-03-16T03:02:13.670Z,7.25
2023-03-16T03:04:41.789Z,7.35
2023-03-16T03:07:09.252Z,7.25
2023-03-16T03:09:37.002Z,7.25
2023-03-16T03:12:04.715Z,7.13
2023-03-16T03:14:33.546Z,7.25
2023-03-16T03:17:01.124Z,6.95
2023-03-16T03:19:28.540Z,7.20
2023-03-16T03:21:56.987Z,6.97
2023-03-16T03:24:24.569Z,6.70
2023-03-16T03:26:53.840Z,7.07
2023-03-16T03:29:21.079Z,7.07
2023-03-16T03:31:48.583Z,6.82
2023-03-16T03:34:15.931Z,7.15
2023-03-16T03:36:43.524Z,7.18
2023-03-16T03:39:13.472Z,6.43
2023-03-16T03:41:41.072Z,7.10
2023-03-16T03:44:08.473Z,6.68
2023-03-16T03:46:36.495Z,6.82
2023-03-16T03:49:05.305Z,6.93
2023-03-16T03:51:33.546Z,7.03
2023-03-16T03:54:00.960Z,6.65
2023-03-16T03:56:28.445Z,6.07
2023-03-16T03:58:56.020Z,6.65
2023-03-16T04:01:23.570Z,6.85
2023-03-16T04:03:50.946Z,6.90
2023-03-16T04:06:18.458Z,6.50
2023-03-16T04:08:45.749Z,6.82
2023-03-16T04:11:13.293Z,6.40
2023-03-16T04:13:41.207Z,6.68
2023-03-16T04:16:09.540Z,6.65
2023-03-16T04:18:39.646Z,6.35
2023-03-16T04:21:12.578Z,6.78
2023-03-16T04:23:39.808Z,6.28
2023-03-16T04:26:07.351Z,6.55
2023-03-16T04:28:35.088Z,6.65
2023-03-16T04:31:05.421Z,6.43
2023-03-16T04:33:37.521Z,6.95
2023-03-16T04:36:06.879Z,6.60
2023-03-16T04:38:34.669Z,5.90
2023-03-16T04:41:04.032Z,6.38
2023-03-16T04:43:34.362Z,6.32
2023-03-16T04:46:03.872Z,6.93
2023-03-16T04:48:34.611Z,6.80
2023-03-16T04:51:03.868Z,6.03
2023-03-16T04:53:34.530Z,5.80
2023-03-16T04:56:02.082Z,6.07
2023-03-16T04:58:29.541Z,6.03
2023-03-16T05:00:57.123Z,6.30
2023-03-16T05:03:24.533Z,6.95
2023-03-16T05:05:52.243Z,6.40
2023-03-16T05:08:19.545Z,6.70
2023-03-16T05:10:48.390Z,6.18
2023-03-16T05:13:15.605Z,6.25
2023-03-16T05:15:43.632Z,6.65
2023-03-16T05:18:10.917Z,6.28
2023-03-16T05:20:38.465Z,6.38
2023-03-16T05:23:08.138Z,6.35
2023-03-16T05:25:35.698Z,5.90
2023-03-16T05:28:03.487Z,6.30
2023-03-16T05:30:33.956Z,6.32
2023-03-16T05:33:01.268Z,6.18
2023-03-16T05:35:28.847Z,6.50
2023-03-16T05:37:56.199Z,6.60
2023-03-16T05:40:23.747Z,6.72
2023-03-16T05:42:57.438Z,6.75
2023-03-16T05:45:25.340Z,6.55
2023-03-16T05:47:53.352Z,5.93
2023-03-16T05:50:21.020Z,6.82
2023-03-16T05:52:48.445Z,7.07
2023-03-16T05:55:17.567Z,7.30
2023-03-16T05:57:44.878Z,6.65
2023-03-16T06:00:15.752Z,6.72
2023-03-16T06:02:44.442Z,7.10
2023-03-16T06:05:12.150Z,6.80
2023-03-16T06:07:39.425Z,7.03
2023-03-16T06:10:07.973Z,7.15
2023-03-16T06:12:35.206Z,7.15
2023-03-16T06:15:04.109Z,7.03
2023-03-16T06:17:31.411Z,6.70
2023-03-16T06:19:59.419Z,7.03
2023-03-16T06:22:26.749Z,6.95
2023-03-16T06:24:54.266Z,6.28
2023-03-16T06:27:26.308Z,6.85
2023-03-16T06:29:53.916Z,6.80
2023-03-16T06:32:21.978Z,6.93
2023-03-16T06:34:49.506Z,6.22
2023-03-16T06:37:16.844Z,6.72
2023-03-16T06:39:45.033Z,6.93
2023-03-16T06:42:12.344Z,6.60
2023-03-16T06:44:39.892Z,6.88
2023-03-16T06:47:07.350Z,7.10
2023-03-16T06:49:34.991Z,7.07
2023-03-16T06:52:03.327Z,6.65
2023-03-16T06:54:34.109Z,6.90
2023-03-16T06:57:01.568Z,6.38
2023-03-16T06:59:29.580Z,7.18
2023-03-16T07:01:57.130Z,6.78
2023-03-16T07:04:24.775Z,6.72
2023-03-16T07:06:53.421Z,6.70
2023-03-16T07:09:22.007Z,6.88
2023-03-16T07:11:52.627Z,6.38
2023-03-16T07:14:21.130Z,6.47
2023-03-16T07:16:48.964Z,6.72
2023-03-16T07:19:16.872Z,7.00
2023-03-16T07:21:44.628Z,6.90
2023-03-16T07:24:12.888Z,6.57
2023-03-16T07:26:41.348Z,6.30
2023-03-16T07:29:10.008Z,6.72
2023-03-16T07:31:37.608Z,6.60
2023-03-16T07:34:08.857Z,6.70
2023-03-16T07:36:36.395Z,6.70
2023-03-16T07:39:06.270Z,6.45
2023-03-16T07:41:34.826Z,6.75
2023-03-16T07:44:04.225Z,6.57
2023-03-16T07:46:33.753Z,7.30
2023-03-16T07:49:01.569Z,6.40
2023-03-16T07:51:30.283Z,6.38
2023-03-16T07:53:58.985Z,6.18
2023-03-16T07:56:29.704Z,7.35
2023-03-16T07:58:59.497Z,6.50
2023-03-16T08:01:28.235Z,6.50
2023-03-16T08:03:57.314Z,6.68
2023-03-16T08:06:25.950Z,6.40
2023-03-16T08:08:54.838Z,7.00
2023-03-16T08:11:25.176Z,6.72
2023-03-16T08:13:56.572Z,6.38
2023-03-16T08:16:24.664Z,6.35
2023-03-16T08:18:52.837Z,6.20
2023-03-16T08:21:21.041Z,6.45
2023-03-16T08:23:50.493Z,6.47
2023-03-16T08:26:22.913Z,6.95
2023-03-16T08:28:52.232Z,6.30
2023-03-16T08:31:21.277Z,6.32
2023-03-16T08:33:49.749Z,6.72
2023-03-16T08:36:20.914Z,6.43
2023-03-16T08:39:05.578Z,5.85
2023-03-16T08:41:36.737Z,6.25
2023-03-16T08:44:04.874Z,6.00
2023-03-16T08:46:34.488Z,6.15
2023-03-16T08:49:02.875Z,6.05
2023-03-16T08:51:31.182Z,6.15
2023-03-16T08:53:59.693Z,6.35
2023-03-16T08:56:28.808Z,6.22
2023-03-16T08:58:58.440Z,6.40
2023-03-16T09:01:26.733Z,6.03
2023-03-16T09:03:55.011Z,6.22
2023-03-16T09:06:22.573Z,6.78
2023-03-16T09:08:50.499Z,6.45
2023-03-16T09:11:19.733Z,6.07
2023-03-16T09:13:48.472Z,6.43
2023-03-16T09:16:16.263Z,5.97
2023-03-16T09:18:44.325Z,5.75
2023-03-16T09:21:13.755Z,6.40
2023-03-16T09:23:45.369Z,6.30
2023-03-16T09:26:15.233Z,5.93
2023-03-16T09:28:52.042Z,5.95
2023-03-16T09:31:20.490Z,5.97
2023-03-16T09:33:51.345Z,6.35
2023-03-16T09:36:20.471Z,6.15
2023-03-16T09:38:48.559Z,6.18
2023-03-16T09:41:33.414Z,5.65
2023-03-16T09:44:30.681Z,5.80
2023-03-16T09:47:01.486Z,5.90
2023-03-16T09:49:37.730Z,6.18
2023-03-16T09:52:34.067Z,5.75
2023-03-16T09:55:24.225Z,6.00
2023-03-16T09:57:53.501Z,5.97
2023-03-16T10:00:27.963Z,6.38
2023-03-16T10:03:24.516Z,6.00
2023-03-16T10:06:00.943Z,5.75
2023-03-16T10:09:00.231Z,6.07
2023-03-16T10:11:46.989Z,6.05
2023-03-16T10:14:37.924Z,6.10
2023-03-16T10:17:47.460Z,5.53
2023-03-16T10:20:20.708Z,6.25
2023-03-16T10:22:53.996Z,5.35
2023-03-16T10:25:35.586Z,6.00
2023-03-16T10:28:06.417Z,6.10
2023-03-16T10:30:37.368Z,5.57
2023-03-16T10:33:24.172Z,5.28
2023-03-16T10:36:11.545Z,5.75
2023-03-16T10:38:55.313Z,5.65
2023-03-16T10:41:25.989Z,5.28
2023-03-16T10:44:07.250Z,5.53
2023-03-16T10:46:41.269Z,5.20
2023-03-16T10:49:21.213Z,5.47
2023-03-16T10:51:49.331Z,5.03
2023-03-16T10:54:30.462Z,5.00
2023-03-16T10:57:01.991Z,4.63
2023-03-16T10:59:31.878Z,5.40
2023-03-16T11:02:16.575Z,5.03
2023-03-16T11:04:46.069Z,5.07
2023-03-16T11:07:24.419Z,5.22
2023-03-16T11:09:54.581Z,5.90
2023-03-16T11:12:23.191Z,5.18
2023-03-16T11:14:52.374Z,4.72
2023-03-16T11:17:40.040Z,5.63
2023-03-16T11:20:20.497Z,4.90
2023-03-16T11:22:48.565Z,4.80
2023-03-16T11:25:37.236Z,5.38
2023-03-16T11:28:34.008Z,5.05
2023-03-16T11:31:56.458Z,5.38
2023-03-16T11:34:29.087Z,4.82
2023-03-16T11:37:13.113Z,5.30
2023-03-16T11:40:02.228Z,4.85
2023-03-16T11:42:38.037Z,4.95
2023-03-16T11:45:22.819Z,5.22
2023-03-16T11:47:51.315Z,4.93
2023-03-16T11:50:22.620Z,5.15
2023-03-16T11:53:18.983Z,5.00
2023-03-16T11:56:15.910Z,4.70
2023-03-16T11:58:55.855Z,5.18
2023-03-16T12:02:01.403Z,5.30
2023-03-16T12:05:08.773Z,4.85
2023-03-16T12:08:01.557Z,4.90
2023-03-16T12:10:44.402Z,4.60
2023-03-16T12:13:32.574Z,4.72
2023-03-16T12:16:05.707Z,4.65
2023-03-16T12:18:47.794Z,4.40
2023-03-16T12:21:21.341Z,4.55
2023-03-16T12:24:07.027Z,4.38
2023-03-16T12:26:40.662Z,4.10
2023-03-16T12:29:31.615Z,4.38
2023-03-16T12:32:43.658Z,4.45
2023-03-16T12:35:33.974Z,4.40
2023-03-16T12:38:24.160Z,4.40
2023-03-16T12:41:03.703Z,4.22
2023-03-16T12:44:01.008Z,4.25
2023-03-16T12:46:53.403Z,4.30
2023-03-16T12:49:24.753Z,4.25
2023-03-16T12:52:01.634Z,3.97
2023-03-16T12:54:30.203Z,4.10
2023-03-16T12:57:04.650Z,4.03
2023-03-16T12:59:45.706Z,4.30
2023-03-16T13:02:31.454Z,3.60
2023-03-16T13:05:10.567Z,3.95
2023-03-16T13:07:47.711Z,4.00
2023-03-16T13:10:17.842Z,4.50
2023-03-16T13:12:47.846Z,4.20
2023-03-16T13:15:19.410Z,4.13
2023-03-16T13:18:08.709Z,3.72
2023-03-16T13:21:00.812Z,4.28
2023-03-16T13:23:50.257Z,3.95
2023-03-16T13:26:27.970Z,3.78
2023-03-16T13:28:56.247Z,4.00
2023-03-16T13:31:41.567Z,3.78
2023-03-16T13:34:14.958Z,3.92
2023-03-16T13:36:45.369Z,4.10
2023-03-16T13:39:18.745Z,4.00
2023-03-16T13:42:09.733Z,3.58
2023-03-16T13:44:42.176Z,4.25
2023-03-16T13:47:16.831Z,3.65
2023-03-16T13:49:48.671Z,4.30
2023-03-16T13:52:29.912Z,3.78
2023-03-16T13:55:00.949Z,3.60
2023-03-16T13:57:37.322Z,3.60
2023-03-16T14:00:26.377Z,3.65
2023-03-16T14:02:57.005Z,3.10
2023-03-16T14:05:30.961Z,4.00
2023-03-16T14:08:00.873Z,3.70
2023-03-16T14:10:34.222Z,3.67
2023-03-16T14:13:32.258Z,3.97
2023-03-16T14:16:16.620Z,3.65
2023-03-16T14:18:52.128Z,3.45
2023-03-16T14:21:25.896Z,3.38
2023-03-16T14:24:05.646Z,3.60
2023-03-16T14:26:45.299Z,3.65
2023-03-16T14:29:27.465Z,3.80
2023-03-16T14:31:55.559Z,3.67
2023-03-16T14:34:39.380Z,3.47
2023-03-16T14:37:07.725Z,3.25
2023-03-16T14:39:35.604Z,3.40
2023-03-16T14:42:14.358Z,3.45
2023-03-16T14:44:42.396Z,3.92
2023-03-16T14:47:21.852Z,3.45
2023-03-16T14:49:49.487Z,3.03
2023-03-16T14:52:27.182Z,3.40
2023-03-16T14:54:55.317Z,3.03
2023-03-16T14:57:22.942Z,3.30
2023-03-16T14:59:50.928Z,3.50
2023-03-16T15:02:25.241Z,3.45
2023-03-16T15:04:53.586Z,3.80
2023-03-16T15:07:26.312Z,3.20
2023-03-16T15:09:55.513Z,3.15
2023-03-16T15:12:25.031Z,3.20
2023-03-16T15:15:11.801Z,3.10
2023-03-16T15:17:39.203Z,3.53
2023-03-16T15:20:08.161Z,3.45
2023-03-16T15:22:37.543Z,3.38
2023-03-16T15:25:41.726Z,3.50
2023-03-16T15:28:18.072Z,3.25
2023-03-16T15:30:47.978Z,3.28
2023-03-16T15:33:15.788Z,3.00
2023-03-16T15:35:44.461Z,2.78
2023-03-16T15:38:24.130Z,3.10
2023-03-16T15:40:53.130Z,3.00
2023-03-16T15:43:22.989Z,2.95
2023-03-16T15:45:52.471Z,3.42
2023-03-16T15:48:24.157Z,2.90
2023-03-16T15:50:55.065Z,2.95
2023-03-16T15:53:31.271Z,2.90
2023-03-16T15:56:04.597Z,3.08
2023-03-16T15:58:34.050Z,2.95
2023-03-16T16:01:03.807Z,3.05
2023-03-16T16:03:31.840Z,2.92
2023-03-16T16:05:59.706Z,3.13
2023-03-16T16:08:27.932Z,2.78
2023-03-16T16:10:56.335Z,3.00
2023-03-16T16:13:43.174Z,3.17
2023-03-16T16:16:14.138Z,3.00
2023-03-16T16:18:41.834Z,2.85
2023-03-16T16:21:23.154Z,3.00
2023-03-16T16:23:52.200Z,2.90
2023-03-16T16:26:50.555Z,3.03
2023-03-16T16:29:27.430Z,2.88
2023-03-16T16:31:55.573Z,2.80
2023-03-16T16:34:24.902Z,3.17
2023-03-16T16:36:54.298Z,2.88
2023-03-16T16:39:22.311Z,3.03
2023-03-16T16:41:55.295Z,3.40
2023-03-16T16:44:27.225Z,2.97
2023-03-16T16:46:55.537Z,3.22
2023-03-16T16:49:28.458Z,3.00
2023-03-16T16:51:58.459Z,2.70
2023-03-16T16:54:30.033Z,3.30
2023-03-16T16:57:00.097Z,3.58
2023-03-16T16:59:32.096Z,3.33
2023-03-16T17:02:01.781Z,2.90
2023-03-16T17:04:29.600Z,3.00
2023-03-16T17:07:01.887Z,3.03
2023-03-16T17:09:30.252Z,3.00
2023-03-16T17:12:00.845Z,3.85
2023-03-16T17:14:29.115Z,3.28
2023-03-16T17:17:04.551Z,3.03
2023-03-16T17:19:32.758Z,3.40
2023-03-16T17:22:01.404Z,3.28
2023-03-16T17:24:29.662Z,3.47
2023-03-16T17:27:00.171Z,3.20
2023-03-16T17:29:31.683Z,3.60
2023-03-16T17:32:02.532Z,4.22
2023-03-16T17:34:32.972Z,3.05
2023-03-16T17:37:01.969Z,3.80
2023-03-16T17:42:18.628Z,4.07
2023-03-16T17:44:49.850Z,3.63
2023-03-16T17:47:28.047Z,3.72
2023-03-16T17:49:56.952Z,3.70
2023-03-16T17:52:28.318Z,4.15
2023-03-16T17:54:55.901Z,3.85
2023-03-16T17:57:30.321Z,3.65
2023-03-16T17:59:59.990Z,3.70
2023-03-16T18:02:51.690Z,3.58
2023-03-16T18:05:22.745Z,3.97
2023-03-16T18:07:51.833Z,3.53
2023-03-16T18:10:22.729Z,4.07
2023-03-16T18:12:57.009Z,4.18
2023-03-16T18:15:27.748Z,3.88
2023-03-16T18:17:55.526Z,3.67
2023-03-16T18:20:36.413Z,4.03
2023-03-16T18:23:18.648Z,3.65
2023-03-16T18:25:46.644Z,3.67
2023-03-16T18:28:15.011Z,4.07
2023-03-16T18:30:45.792Z,3.78
2023-03-16T18:33:38.083Z,3.67
2023-03-16T18:36:15.649Z,3.58
2023-03-16T18:38:51.701Z,3.53
2023-03-16T18:41:28.416Z,4.13
2023-03-16T18:43:59.676Z,4.07
2023-03-16T18:46:36.698Z,4.13
2023-03-16T18:49:13.493Z,4.47
2023-03-16T18:51:50.507Z,4.25
2023-03-16T18:54:35.380Z,4.07
2023-03-16T18:59:37.039Z,4.22
2023-03-16T19:02:06.541Z,4.70
2023-03-16T19:04:34.989Z,4.55
2023-03-16T19:07:16.420Z,4.70
2023-03-16T19:09:43.932Z,4.25
2023-03-16T19:12:16.225Z,3.97
2023-03-16T19:14:43.913Z,4.43
2023-03-16T19:17:11.352Z,4.38
2023-03-16T19:19:38.952Z,4.80
2023-03-16T19:22:14.033Z,4.60
2023-03-16T19:24:52.602Z,4.78
2023-03-16T19:27:21.826Z,4.43
2023-03-16T19:29:52.303Z,4.68
2023-03-16T19:32:21.041Z,5.30
2023-03-16T19:34:49.307Z,6.13
2023-03-16T19:37:19.624Z,5.75
2023-03-16T19:39:47.282Z,6.20
2023-03-16T19:42:33.673Z,6.18
2023-03-16T19:45:01.457Z,6.75
2023-03-16T19:47:34.769Z,7.00
2023-03-16T19:50:02.481Z,7.07
2023-03-16T19:52:31.460Z,7.15
2023-03-16T19:54:59.278Z,6.28
2023-03-16T19:57:27.000Z,6.53
2023-03-16T19:59:57.455Z,6.90
2023-03-16T20:02:40.324Z,7.10
2023-03-16T20:05:08.365Z,7.55
2023-03-16T20:07:38.106Z,7.78
2023-03-16T20:10:07.095Z,8.07
2023-03-16T20:12:37.011Z,7.70
2023-03-16T20:15:05.116Z,8.25
2023-03-16T20:17:33.768Z,8.02
2023-03-16T20:20:01.913Z,8.30
2023-03-16T20:22:30.009Z,8.27
2023-03-16T20:24:58.118Z,9.05
2023-03-16T20:27:27.691Z,8.95
2023-03-16T20:29:55.716Z,8.07
2023-03-16T20:32:26.853Z,9.13
2023-03-16T20:34:54.509Z,9.32
2023-03-16T20:37:25.976Z,9.48
2023-03-16T20:39:55.616Z,9.23
2023-03-16T20:42:26.258Z,10.80
2023-03-16T20:44:55.706Z,9.77
2023-03-16T20:47:24.308Z,10.45
2023-03-16T20:49:53.220Z,10.63
2023-03-16T20:52:27.256Z,10.98
2023-03-16T20:54:57.269Z,10.98
2023-03-16T20:57:27.168Z,10.82
2023-03-16T20:59:55.479Z,11.80
2023-03-16T21:02:27.124Z,11.95
2023-03-16T21:04:59.437Z,13.00
2023-03-16T21:07:27.206Z,12.02
2023-03-16T21:09:55.185Z,12.27
2023-03-16T21:12:34.658Z,13.65
2023-03-16T21:15:14.862Z,12.13
2023-03-16T21:17:42.404Z,12.43
2023-03-16T21:20:19.087Z,13.07
2023-03-16T21:22:46.557Z,13.35
2023-03-16T21:25:30.967Z,13.65
2023-03-16T21:28:02.330Z,13.88
2023-03-16T21:30:37.466Z,13.63
2023-03-16T21:33:17.111Z,14.18
2023-03-16T21:35:44.691Z,14.15
2023-03-16T21:38:14.220Z,14.00
2023-03-16T21:40:41.843Z,15.00
2023-03-16T21:43:11.723Z,14.23
2023-03-16T21:45:41.084Z,14.73
2023-03-16T21:48:35.844Z,14.18
2023-03-16T21:51:03.604Z,14.35
2023-03-16T21:53:33.370Z,15.88
2023-03-16T21:56:01.255Z,16.05
2023-03-16T21:58:28.539Z,15.35
2023-03-16T22:00:58.261Z,17.17
2023-03-16T22:03:49.958Z,16.27
2023-03-16T22:06:18.943Z,16.80
2023-03-16T22:08:46.482Z,17.42
2023-03-16T22:11:16.990Z,17.17
2023-03-16T22:13:46.427Z,16.88
2023-03-16T22:16:17.207Z,16.70
2023-03-16T22:18:49.080Z,17.33
2023-03-16T22:21:38.104Z,17.48
2023-03-16T22:24:12.540Z,16.90
2023-03-16T22:26:40.427Z,18.73
2023-03-16T22:29:24.189Z,18.13
2023-03-16T22:31:55.332Z,19.35
2023-03-16T22:34:31.392Z,17.42
2023-03-16T22:37:01.212Z,18.90
2023-03-16T22:39:34.928Z,18.95
2023-03-16T22:42:20.468Z,19.40
2023-03-16T22:44:47.684Z,18.58
2023-03-16T22:47:23.047Z,18.25
2023-03-16T22:49:50.597Z,20.20
2023-03-16T22:52:18.682Z,19.35
2023-03-16T22:54:47.143Z,19.88
2023-03-16T22:57:16.916Z,20.50
2023-03-16T22:59:47.269Z,20.50
2023-03-16T23:02:15.664Z,19.42
2023-03-16T23:04:43.104Z,19.55
2023-03-16T23:07:12.497Z,20.38
2023-03-16T23:09:40.748Z,19.75
2023-03-16T23:12:18.834Z,19.92
2023-03-16T23:14:47.253Z,20.65
2023-03-16T23:17:22.166Z,20.52
2023-03-16T23:19:49.657Z,22.10
2023-03-16T23:22:17.636Z,21.45
2023-03-16T23:24:44.898Z,20.95
2023-03-16T23:27:18.486Z,20.25
2023-03-16T23:29:46.649Z,20.73
2023-03-16T23:32:16.919Z,22.45
2023-03-16T23:34:46.333Z,22.08
2023-03-16T23:37:14.056Z,21.67
2023-03-16T23:39:41.305Z,21.02
2023-03-16T23:42:09.189Z,21.90
2023-03-16T23:44:36.460Z,22.67
2023-03-16T23:47:04.572Z,22.38
2023-03-16T23:49:36.706Z,22.95
2023-03-16T23:52:04.535Z,22.73
2023-03-16T23:54:33.243Z,22.55
2023-03-16T23:57:00.922Z,24.00
2023-03-16T23:59:29.192Z,23.25
